Casablanca, Morocco

2017 November 24 12:16 AM (WET időzóna) (GMT +0000)
Nouasseur | | Change Station

Elev 676 ft 33.37 °N, 7.58 °W | Updated 16 minutes ago

Derült
Derült
55 °F
Hőérzet 55 °F
N
5
Szél: változó Szél: from délkeleti

Ma
High -- | Low -- °F
--% Csapadék valószínű
Tegnapi
High -- | Low -- °F
Precip. -- hvlyk.
Légnyomás 30.12 hvlyk.
Látótávolság 6.2 mérföld
Felhők
Harmatpont 30 °F
Páratartalom 38%
Rainfall 0.00 hvlyk.
Hóréteg vastagsága Not available.
7:10 AM 5:23 PM
Növekvő holdsarló, 25% visible
METAR GMMN 240000Z 11004KT 9999 4700 NSC 13/M01 Q1020 NOSIG
Légnyomás 30.12 hvlyk.
Látótávolság 6.2 mérföld
Felhők
Harmatpont 30 °F
Páratartalom 38%
Rainfall 0.00 hvlyk.
Hóréteg vastagsága Not available.
7:10 AM 5:23 PM
Növekvő holdsarló, 25% visible
METAR GMMN 240000Z 11004KT 9999 4700 NSC 13/M01 Q1020 NOSIG

Get Severe Weather Alerts

Thanks for signing up!

Be on the lookout for a verification email in your inbox.

You'll start receiving the daily forecast at 6 AM.

×

10-Day Weather Forecast

No radar image for this location.
×

Almanac

Csillagászat

Nov. 24, 2017 Kel Nyugszik
Tényleges idő
Civil alkony
Tengerészeti alkony
Csillagászati alkony
Hold
Látható fény időtartama
A nap hossza
Tomorrow will be .
, % of the Moon is Illuminated

Today's Extremes

Country Highs Country Lows

Community

Category 6

Welcome to Category 6. This is the collective home for Weather Underground's featured writeups by Dr. Jeff Masters (right), Bob Henson (left), Chris Burt, and other regular contributors.

Nearby

A levegő minősége

  A levegő minősége AQ Index Szennyezőanyag
Not available.

Hóréteg vastagsága

Station Depth Elevation

Earthquake Activity

város Distance Mag. Time & Date
Minimum magnitude displayed is 2.5.

Coastal Water Temperatures

Hely Hőmérséklet

Stations

Közeli meteorológiai állomások

Station Location Hőm. Hőérzet Harmatpont Páratartalom Szél: Precip. Elev Frissítve Type